Terminal Aerodrome Forecast
Issued by NWS Charleston, WV

Current Version | Previous Version | Graphics & Text | Print | Product List | Glossary On
Versions: 1 2 3 4 5 6 7 8 9 10 11 12 13 14 15 16 17 18 19 20 21 22 23 24
000
FTUS41 KRLX 180535
TAFBKW
TAF
KBKW 180535Z 1806/1906 29014G24KT P6SM OVC006
     FM180900 30014G25KT 6SM -FZDZ BR OVC008
     FM181300 31010G18KT 6SM BR BKN010
     FM181500 32008KT P6SM SCT015
     FM181900 17003KT P6SM FEW250
     FM190300 15011KT P6SM SCT250=

USA.gov is the U.S. government's official web portal to all federal, state and local government web resources and services.